Time;durP1;ratioP1;P1;durP2;ratioP2;P2;SDS_P1;SDS_P2;PMS_P1;PMS_P2;Temp;Humidity;BMP_temperature;BMP_pressure;BME280_temperature;BME280_humidity;BME280_pressure;Samples;Min_cycle;Max_cycle;Signal;HPM_P1;HPM_P2
2023/08/29 00:38:45;;;;;;;6.33;4.20;;;;;;;10.25;100.00;95254.72;7434348;19;20360;-96
2023/08/29 00:41:39;;;;;;;4.80;4.27;;;;;;;8.77;100.00;95003.53;7433292;19;20393;-95
2023/08/29 02:21:15;;;;;;;7.03;6.43;;;;;;;9.71;100.00;95206.16;7430991;19;20637;-96
2023/08/29 02:24:02;;;;;;;7.47;6.77;;;;;;;7.46;100.00;94865.38;7429061;19;20421;-96
2023/08/29 12:45:55;;;;;;;2.33;2.13;;;;;;;10.24;100.00;95031.31;7420945;19;20432;-95
2023/08/29 12:49:32;;;;;;;3.67;3.07;;;;;;;11.58;100.00;95157.72;7425200;19;20393;-94
2023/08/29 12:52:18;;;;;;;3.43;3.00;;;;;;;10.86;100.00;95034.44;7428239;19;20403;-95
2023/08/29 12:55:32;;;;;;;2.80;2.53;;;;;;;11.50;100.00;95148.94;7423743;19;20432;-93
2023/08/29 13:02:22;;;;;;;3.23;3.03;;;;;;;13.18;100.00;95344.91;7433059;19;20401;-96
2023/08/29 14:01:05;;;;;;;;;;;;;;;;;;;;;
2023/08/29 14:03:38;;;;;;;7.30;5.77;;;;;;;10.86;100.00;95045.75;7426218;19;20427;-95
2023/08/29 14:09:26;;;;;;;8.00;5.50;;;;;;;13.12;100.00;95352.44;7424742;19;20419;-95
2023/08/29 14:12:18;;;;;;;7.97;5.70;;;;;;;12.28;100.00;95191.41;7425923;19;20425;-95
2023/08/29 14:14:48;;;;;;;5.40;4.90;;;;;;;13.28;100.00;95338.94;7425829;19;20443;-95
2023/08/29 14:17:24;;;;;;;4.30;4.00;;;;;;;13.19;100.00;95338.47;7432996;19;20384;-94
2023/08/29 14:19:56;;;;;;;4.70;4.30;;;;;;;12.22;100.00;95206.88;7430352;19;20397;-95
2023/08/29 14:22:34;;;;;;;3.73;3.43;;;;;;;11.07;100.00;95010.84;7430342;19;20392;-95
2023/08/29 14:25:17;;;;;;;4.20;3.90;;;;;;;13.35;100.00;95344.28;7426414;19;20488;-95
2023/08/29 14:28:19;;;;;;;3.37;3.07;;;;;;;12.12;100.00;95152.66;7431007;19;20385;-95
2023/08/29 14:31:06;;;;;;;4.43;4.03;;;;;;;11.73;100.00;95056.91;7427011;19;20405;-95
2023/08/29 14:33:47;;;;;;;5.73;3.90;;;;;;;12.09;100.00;95136.72;7428878;19;20453;-94
2023/08/29 14:36:19;;;;;;;5.03;4.50;;;;;;;12.53;100.00;95170.41;7430022;19;20383;-96
2023/08/29 14:39:09;;;;;;;4.40;2.93;;;;;;;12.28;100.00;95162.25;7423067;19;20385;-95
2023/08/29 14:41:57;;;;;;;3.63;3.17;;;;;;;12.32;100.00;95139.97;7422446;19;20384;-95
2023/08/29 14:44:30;;;;;;;3.80;3.50;;;;;;;11.68;100.00;95006.19;7422700;19;20420;-95
2023/08/29 14:47:09;;;;;;;4.13;3.33;;;;;;;11.96;100.00;95014.38;7422911;19;20376;-95
2023/08/29 14:49:44;;;;;;;2.97;2.63;;;;;;;12.75;100.00;95158.84;7425531;19;20394;-95
2023/08/29 14:52:17;;;;;;;3.60;3.30;;;;;;;13.22;100.00;95192.56;7425715;19;20380;-95
2023/08/29 14:54:47;;;;;;;4.93;3.77;;;;;;;11.77;100.00;94999.47;7421665;19;20431;-95
2023/08/29 14:57:59;;;;;;;6.20;2.80;;;;;;;14.14;100.00;95358.84;7424485;19;20411;-95
2023/08/29 15:00:43;;;;;;;2.40;2.20;;;;;;;12.61;100.00;95158.75;7422848;19;20370;-95
2023/08/29 15:03:32;;;;;;;2.30;2.10;;;;;;;12.70;100.00;95193.69;7419607;19;20376;-94
2023/08/29 15:06:35;;;;;;;2.43;2.23;;;;;;;12.71;100.00;95201.25;7416068;19;20784;-95
2023/08/29 15:09:27;;;;;;;2.77;2.57;;;;;;;13.50;100.00;95294.72;7420240;19;20410;-95
2023/08/29 15:12:05;;;;;;;2.40;2.20;;;;;;;13.76;100.00;95338.91;7423738;19;20377;-94
2023/08/29 15:14:37;;;;;;;3.10;1.70;;;;;;;12.85;100.00;95248.34;7421159;19;20436;-95
2023/08/29 15:17:15;;;;;;;2.50;2.40;;;;;;;13.79;100.00;95359.41;7422090;19;20416;-95
2023/08/29 15:19:54;;;;;;;2.37;1.90;;;;;;;12.73;100.00;95222.88;7423682;19;20381;-95
2023/08/29 15:22:24;;;;;;;2.53;1.67;;;;;;;11.59;100.00;95061.31;7422122;19;20388;-95
2023/08/29 15:25:09;;;;;;;1.77;1.17;;;;;;;12.51;100.00;95177.97;7421881;19;20435;-96
2023/08/29 15:27:43;;;;;;;3.93;1.60;;;;;;;13.47;100.00;95344.00;7423928;19;20393;-95
2023/08/29 15:30:48;;;;;;;1.87;1.37;;;;;;;12.27;100.00;95164.13;7421582;19;20383;-96
2023/08/29 15:33:51;;;;;;;;;;;;;;;;;;;;;
2023/08/29 15:37:13;;;;;;;2.10;1.40;;;;;;;12.23;100.00;95181.13;7433523;19;20391;-96
2023/08/29 15:39:54;;;;;;;1.57;1.47;;;;;;;13.34;100.00;95360.59;7430585;19;20380;-95
2023/08/29 15:42:51;;;;;;;1.83;1.67;;;;;;;11.56;100.00;95091.91;7428162;19;20448;-96
2023/08/29 15:45:20;;;;;;;1.63;1.13;;;;;;;11.90;100.00;95134.28;7427586;19;20451;-95
2023/08/29 15:48:18;;;;;;;1.20;1.10;;;;;;;12.39;100.00;95179.00;7435733;19;20408;-95
2023/08/29 15:51:14;;;;;;;1.53;1.43;;;;;;;11.58;100.00;95052.59;7435120;19;20389;-95
2023/08/29 15:53:43;;;;;;;2.57;1.50;;;;;;;11.32;100.00;95052.69;7431905;19;20420;-95
2023/08/29 15:56:25;;;;;;;2.30;1.60;;;;;;;13.58;100.00;95374.06;7432178;19;20404;-96
2023/08/29 15:59:04;;;;;;;10.90;2.23;;;;;;;12.39;100.00;95187.72;7436299;19;20384;-95
2023/08/29 16:01:51;;;;;;;1.33;1.23;;;;;;;11.58;100.00;95063.19;7433233;19;20393;-95
2023/08/29 16:04:30;;;;;;;2.07;1.50;;;;;;;12.61;100.00;95209.13;7431399;19;20477;-94
2023/08/29 16:07:26;;;;;;;2.43;1.67;;;;;;;13.70;100.00;95380.22;7430881;19;20385;-96
2023/08/29 16:10:04;;;;;;;4.53;1.80;;;;;;;12.48;100.00;95179.47;7434314;19;20389;-95
2023/08/29 16:12:37;;;;;;;3.17;1.60;;;;;;;12.66;100.00;95251.97;7432470;19;20380;-95
2023/08/29 16:15:18;;;;;;;2.50;1.90;;;;;;;11.23;100.00;95035.25;7432850;19;20424;-95
2023/08/29 16:17:47;;;;;;;2.27;1.90;;;;;;;12.67;100.00;95260.69;7433335;19;20373;-96
2023/08/29 16:20:23;;;;;;;1.90;1.80;;;;;;;13.54;100.00;95394.53;7434996;19;20401;-96
2023/08/29 16:22:56;;;;;;;2.23;1.80;;;;;;;12.19;100.00;95201.56;7433750;19;20418;-95
2023/08/29 16:25:27;;;;;;;1.30;1.20;;;;;;;12.03;100.00;95186.63;7434057;19;20444;-95
2023/08/29 16:27:59;;;;;;;3.20;1.87;;;;;;;13.00;100.00;95336.78;7433308;19;20380;-95
2023/08/29 16:30:30;;;;;;;1.90;1.80;;;;;;;13.49;100.00;95394.88;7430819;19;20384;-95
2023/08/29 16:33:07;;;;;;;2.70;2.20;;;;;;;12.29;100.00;95217.56;7435256;19;20416;-95
2023/08/29 16:35:41;;;;;;;3.63;1.67;;;;;;;12.03;100.00;95188.53;7429892;19;20428;-96
2023/08/29 16:38:12;;;;;;;2.90;1.80;;;;;;;13.60;100.00;95403.66;7436278;19;20433;-96
2023/08/29 16:40:42;;;;;;;1.87;1.57;;;;;;;12.35;100.00;95207.38;7434404;19;20381;-96
2023/08/29 16:43:15;;;;;;;2.37;1.40;;;;;;;11.22;100.00;95051.47;7435266;19;20389;-95
2023/08/29 16:45:46;;;;;;;1.73;1.60;;;;;;;13.05;100.00;95319.75;7434750;19;20408;-96
2023/08/29 16:48:23;;;;;;;3.17;1.57;;;;;;;12.22;100.00;95209.53;7434197;19;20376;-95
2023/08/29 16:50:59;;;;;;;3.17;1.60;;;;;;;13.38;100.00;95407.31;7435728;19;20380;-96
2023/08/29 16:53:34;;;;;;;1.83;1.63;;;;;;;12.73;100.00;95325.53;7433495;19;20456;-94
2023/08/29 16:56:11;;;;;;;3.53;1.70;;;;;;;12.05;100.00;95204.81;7430831;19;20393;-95
2023/08/29 16:58:45;;;;;;;1.60;1.50;;;;;;;13.22;100.00;95399.59;7432747;19;20401;-95
2023/08/29 17:01:20;;;;;;;1.60;1.50;;;;;;;12.24;100.00;95272.75;7431563;19;20420;-95
2023/08/29 17:03:52;;;;;;;1.97;1.77;;;;;;;12.72;100.00;95331.97;7432433;19;20420;-96
2023/08/29 17:06:30;;;;;;;4.03;1.80;;;;;;;10.93;100.00;95058.28;7424242;19;20380;-95
2023/08/29 17:09:00;;;;;;;1.83;1.63;;;;;;;11.42;100.00;95120.88;7427687;19;20392;-96
2023/08/29 17:11:30;;;;;;;2.63;1.60;;;;;;;11.19;100.00;95079.41;7426306;19;20377;-96
2023/08/29 17:14:01;;;;;;;2.80;1.77;;;;;;;11.71;100.00;95178.31;7423489;19;20471;-95
2023/08/29 17:16:32;;;;;;;1.57;1.47;;;;;;;11.16;100.00;95088.06;7424906;19;20380;-95
2023/08/29 17:19:02;;;;;;;2.90;1.60;;;;;;;12.03;100.00;95194.59;7424006;19;20428;-95
2023/08/29 17:21:33;;;;;;;2.10;1.90;;;;;;;11.98;100.00;95210.03;7423744;19;20444;-95
2023/08/29 17:24:02;;;;;;;2.17;1.87;;;;;;;13.16;100.00;95386.97;7421151;19;20429;-95
2023/08/29 17:26:35;;;;;;;2.03;1.40;;;;;;;11.86;100.00;95212.91;7421939;19;20405;-95
2023/08/29 17:29:06;;;;;;;2.30;1.50;;;;;;;10.82;100.00;95070.66;7421720;19;20373;-95
2023/08/29 17:32:03;;;;;;;1.90;1.50;;;;;;;11.06;100.00;95123.06;7430991;19;20385;-96
2023/08/29 17:34:50;;;;;;;1.33;1.23;;;;;;;11.38;100.00;95183.59;7430677;19;21059;-96
2023/08/29 17:37:41;;;;;;;1.77;1.50;;;;;;;11.61;100.00;95233.75;7427070;19;20389;-96
2023/08/29 17:40:21;;;;;;;1.80;1.70;;;;;;;10.86;100.00;95088.06;7428149;19;20399;-95
2023/08/29 17:43:16;;;;;;;1.50;1.40;;;;;;;13.09;100.00;95424.03;7429091;19;20388;-95
2023/08/29 17:45:56;;;;;;;1.83;1.73;;;;;;;12.16;100.00;95298.44;7428499;19;20373;-96
2023/08/29 17:48:41;;;;;;;2.50;1.47;;;;;;;13.06;100.00;95424.78;7427003;19;20380;-96
2023/08/29 17:51:26;;;;;;;2.80;1.83;;;;;;;13.13;100.00;95432.81;7425909;19;20381;-96
2023/08/29 17:54:07;;;;;;;1.80;1.40;;;;;;;11.93;100.00;95256.16;7424440;19;20443;-95
2023/08/29 17:56:45;;;;;;;1.60;1.50;;;;;;;12.95;100.00;95438.72;7424955;19;20380;-95
2023/08/29 17:59:32;;;;;;;3.90;1.73;;;;;;;10.56;100.00;95090.69;7425930;19;20381;-96
2023/08/29 18:02:29;;;;;;;4.40;1.67;;;;;;;10.61;100.00;95110.75;7428000;19;20396;-95
2023/08/29 18:05:26;;;;;;;3.13;1.77;;;;;;;11.12;100.00;95219.53;7425394;19;20416;-95
2023/08/29 18:08:15;;;;;;;3.13;1.83;;;;;;;10.41;100.00;95111.94;7426022;19;20389;-96
2023/08/29 18:10:50;;;;;;;2.17;2.07;;;;;;;10.42;100.00;95105.56;7427174;19;20393;-95
2023/08/29 18:13:46;;;;;;;1.90;1.70;;;;;;;11.04;100.00;95212.59;7427010;19;20404;-95
2023/08/29 18:16:28;;;;;;;2.90;2.57;;;;;;;11.39;100.00;95253.91;7426588;19;20413;-96
2023/08/29 18:19:01;;;;;;;2.70;1.77;;;;;;;11.59;100.00;95279.13;7429696;19;20392;-94
2023/08/29 18:21:40;;;;;;;4.23;2.23;;;;;;;11.48;100.00;95275.56;7431141;19;20376;-95
2023/08/29 18:24:26;;;;;;;3.63;2.10;;;;;;;10.26;100.00;95118.88;7429267;19;20463;-94
2023/08/29 18:26:57;;;;;;;4.10;2.03;;;;;;;11.22;100.00;95248.03;7429365;19;20384;-95
2023/08/29 18:29:39;;;;;;;1.77;1.67;;;;;;;9.98;100.00;95098.78;7431455;19;20373;-95
2023/08/29 18:32:23;;;;;;;2.63;2.43;;;;;;;11.18;100.00;95257.78;7429957;19;20384;-95
2023/08/29 18:34:58;;;;;;;5.80;5.30;;;;;;;11.37;100.00;95293.22;7430914;19;20428;-95
2023/08/29 18:37:32;;;;;;;9.03;8.23;;;;;;;10.42;100.00;95167.09;7428939;19;20396;-95
2023/08/29 18:40:01;;;;;;;23.87;21.70;;;;;;;11.16;100.00;95277.75;7431531;19;20381;-96
2023/08/29 18:42:35;;;;;;;8.07;7.40;;;;;;;11.09;100.00;95254.63;7430660;19;20412;-94
2023/08/29 18:45:12;;;;;;;4.80;3.30;;;;;;;10.12;100.00;95123.91;7428148;19;20428;-95
2023/08/29 18:47:49;;;;;;;4.30;3.10;;;;;;;11.24;100.00;95290.75;7431173;19;20425;-96
2023/08/29 18:50:20;;;;;;;7.90;7.30;;;;;;;10.00;100.00;95122.22;7430114;19;20373;-95
2023/08/29 18:52:58;;;;;;;20.80;19.60;;;;;;;9.93;100.00;95112.31;7431903;19;20416;-95
2023/08/29 18:55:32;;;;;;;10.87;9.97;;;;;;;10.41;100.00;95159.50;7428796;19;20762;-95
2023/08/29 18:58:15;;;;;;;4.33;3.93;;;;;;;11.55;100.00;95321.44;7428021;19;20393;-95
2023/08/29 19:01:01;;;;;;;3.80;3.50;;;;;;;11.11;100.00;95284.13;7431538;19;20389;-96
2023/08/29 19:03:39;;;;;;;3.57;3.27;;;;;;;10.13;100.00;95130.72;7430392;19;20433;-95
2023/08/29 19:06:36;;;;;;;3.00;2.80;;;;;;;10.02;100.00;95112.84;7435211;19;20384;-95
2023/08/29 19:09:19;;;;;;;3.13;2.30;;;;;;;10.05;100.00;95114.78;7435945;19;20393;-95
2023/08/29 19:11:51;;;;;;;2.70;2.50;;;;;;;9.98;100.00;95096.16;7438419;19;20391;-96
2023/08/29 19:14:22;;;;;;;5.43;2.67;;;;;;;10.13;100.00;95144.69;7435144;19;20493;-96
2023/08/29 19:16:53;;;;;;;2.37;2.23;;;;;;;11.15;100.00;95306.09;7437630;19;20394;-96
2023/08/29 19:19:23;;;;;;;2.63;2.43;;;;;;;10.79;100.00;95251.88;7436462;19;20380;-96
2023/08/29 19:22:10;;;;;;;2.10;1.97;;;;;;;9.85;100.00;95118.56;7439507;19;20389;-96
2023/08/29 19:24:45;;;;;;;3.10;2.67;;;;;;;10.06;100.00;95147.97;7435709;19;20420;-96
2023/08/29 19:27:33;;;;;;;4.33;3.20;;;;;;;10.96;100.00;95295.59;7436015;19;20397;-96
2023/08/29 19:30:14;;;;;;;3.50;3.20;;;;;;;9.59;100.00;95089.44;7435470;19;20408;-96
2023/08/29 19:33:13;;;;;;;3.77;3.13;;;;;;;9.75;100.00;95112.00;7437886;19;20396;-95
2023/08/29 19:35:53;;;;;;;4.80;2.50;;;;;;;10.08;100.00;95161.59;7437400;19;20392;-95
2023/08/29 19:38:31;;;;;;;5.63;4.53;;;;;;;10.72;100.00;95237.78;7432850;19;20376;-96
2023/08/29 19:41:20;;;;;;;7.67;4.07;;;;;;;9.89;100.00;95113.38;7433454;19;20417;-95
2023/08/29 19:44:29;;;;;;;4.90;4.00;;;;;;;9.74;100.00;95120.25;7435859;19;20425;-96
2023/08/29 19:47:18;;;;;;;4.57;4.20;;;;;;;9.80;100.00;95139.22;7436358;19;20408;-95
2023/08/29 19:50:00;;;;;;;7.13;3.97;;;;;;;11.15;100.00;95352.97;7435209;19;20375;-96
2023/08/29 19:52:35;;;;;;;5.20;3.63;;;;;;;9.64;100.00;95115.56;7436705;19;20388;-96
2023/08/29 19:55:19;;;;;;;4.10;3.70;;;;;;;9.57;100.00;95118.06;7435505;19;20423;-96
2023/08/29 19:58:13;;;;;;;4.40;4.00;;;;;;;9.42;100.00;95091.41;7433365;19;20387;-96
2023/08/29 20:01:05;;;;;;;8.00;3.87;;;;;;;9.78;100.00;95152.75;7435063;19;20427;-95
2023/08/29 20:03:54;;;;;;;5.70;4.37;;;;;;;9.47;100.00;95100.91;7436117;19;20420;-96
2023/08/29 20:06:43;;;;;;;4.60;3.53;;;;;;;9.64;100.00;95118.19;7436240;19;20380;-96
2023/08/29 20:09:18;;;;;;;3.10;2.80;;;;;;;10.33;100.00;95240.53;7434228;19;20388;-96
2023/08/29 20:11:50;;;;;;;3.53;3.30;;;;;;;10.28;100.00;95227.59;7436043;19;20376;-96
2023/08/29 20:14:29;;;;;;;3.23;2.93;;;;;;;9.48;100.00;95052.31;7433295;19;20420;-96
2023/08/29 21:15:43;;;;;;;4.30;3.90;;;;;;;9.54;100.00;95203.19;7340674;19;20443;-96
2023/08/29 21:18:25;;;;;;;4.60;3.83;;;;;;;9.12;100.00;95175.59;7433746;19;20416;-95
